Time;durP1;ratioP1;P1;durP2;ratioP2;P2;SDS_P1;SDS_P2;PMS_P1;PMS_P2;Temp;Humidity;BMP_temperature;BMP_pressure;BME280_temperature;BME280_humidity;BME280_pressure;Samples;Min_cycle;Max_cycle;Signal;HPM_P1;HPM_P2
2022/10/09 00:01:31;;;;;;;;;11.00;11.00;;;;;;;;5097550;27;45329;-78
2022/10/09 00:03:57;;;;;;;;;12.75;12.75;;;;;;;;5097475;27;45336;-79
2022/10/09 00:06:27;;;;;;;;;21.50;20.25;;;;;;;;5096766;27;46110;-78
2022/10/09 00:08:52;;;;;;;;;17.50;17.50;;;;;;;;5096690;27;45471;-78
2022/10/09 00:11:19;;;;;;;;;17.75;17.50;;;;;;;;5097261;27;45774;-79
2022/10/09 00:13:45;;;;;;;;;16.50;16.50;;;;;;;;5099178;27;45429;-80
2022/10/09 00:16:11;;;;;;;;;18.50;18.50;;;;;;;;5096966;27;45252;-78
2022/10/09 00:18:37;;;;;;;;;16.00;16.00;;;;;;;;5097427;27;45459;-80
2022/10/09 00:21:03;;;;;;;;;23.25;22.75;;;;;;;;5095308;27;45451;-78
2022/10/09 00:23:28;;;;;;;;;14.50;14.50;;;;;;;;5097959;27;45367;-79
2022/10/09 00:26:00;;;;;;;;;18.50;17.75;;;;;;;;5095293;27;46097;-79
2022/10/09 00:28:27;;;;;;;;;21.00;20.00;;;;;;;;5096672;27;45405;-78
2022/10/09 00:30:52;;;;;;;;;17.25;17.25;;;;;;;;5095073;27;45384;-78
2022/10/09 00:33:17;;;;;;;;;14.50;14.50;;;;;;;;5102314;27;44985;-77
2022/10/09 00:35:43;;;;;;;;;18.75;18.75;;;;;;;;5104500;27;45429;-78
2022/10/09 00:38:09;;;;;;;;;16.00;16.00;;;;;;;;5102429;27;45354;-78
2022/10/09 00:40:35;;;;;;;;;17.75;17.75;;;;;;;;5099004;27;45442;-78
2022/10/09 00:43:00;;;;;;;;;17.75;17.00;;;;;;;;5099183;27;45484;-80
2022/10/09 00:45:26;;;;;;;;;11.50;11.50;;;;;;;;5101361;27;45384;-80
2022/10/09 00:48:02;;;;;;;;;12.50;12.50;;;;;;;;5105058;27;45784;-79
2022/10/09 00:50:34;;;;;;;;;15.00;15.00;;;;;;;;5097445;27;45364;-78
2022/10/09 00:53:00;;;;;;;;;13.25;13.25;;;;;;;;5096934;27;45243;-79
2022/10/09 00:55:26;;;;;;;;;9.50;9.50;;;;;;;;5096020;27;46134;-80
2022/10/09 00:57:52;;;;;;;;;11.25;11.25;;;;;;;;5095765;27;45303;-77
2022/10/09 01:00:18;;;;;;;;;14.50;14.50;;;;;;;;5100377;27;45380;-78
2022/10/09 01:02:43;;;;;;;;;10.25;10.25;;;;;;;;5099357;27;45577;-79
2022/10/09 01:05:09;;;;;;;;;9.25;9.25;;;;;;;;5100705;27;45274;-80
2022/10/09 01:07:34;;;;;;;;;13.25;13.25;;;;;;;;5099404;27;45291;-78
2022/10/09 01:10:03;;;;;;;;;11.00;10.50;;;;;;;;5100357;27;45365;-79
2022/10/09 01:12:37;;;;;;;;;11.25;11.25;;;;;;;;5099834;27;45370;-79
2022/10/09 01:15:05;;;;;;;;;12.75;12.75;;;;;;;;5100872;27;45424;-76
2022/10/09 01:17:34;;;;;;;;;6.25;6.25;;;;;;;;5099733;27;45318;-76
2022/10/09 01:20:10;;;;;;;;;10.75;10.75;;;;;;;;5105319;27;45407;-79
2022/10/09 01:22:46;;;;;;;;;8.25;8.25;;;;;;;;5103639;27;45638;-77
2022/10/09 01:25:19;;;;;;;;;11.00;11.00;;;;;;;;5099995;27;45498;-75
2022/10/09 01:27:44;;;;;;;;;11.25;11.25;;;;;;;;5107564;27;45308;-78
2022/10/09 01:30:11;;;;;;;;;21.00;21.00;;;;;;;;5104929;27;45228;-78
2022/10/09 01:32:38;;;;;;;;;12.25;12.25;;;;;;;;5102134;27;45519;-79
2022/10/09 01:35:05;;;;;;;;;12.75;12.25;;;;;;;;5098356;27;45458;-77
2022/10/09 01:37:32;;;;;;;;;12.00;12.00;;;;;;;;5098656;27;45262;-77
2022/10/09 01:39:58;;;;;;;;;11.50;11.50;;;;;;;;5097843;27;45377;-79
2022/10/09 01:42:25;;;;;;;;;12.50;12.50;;;;;;;;5098963;27;45616;-77
2022/10/09 01:44:50;;;;;;;;;10.00;10.00;;;;;;;;5097955;27;46470;-78
2022/10/09 01:47:16;;;;;;;;;12.75;12.75;;;;;;;;5098433;27;45234;-77
2022/10/09 01:49:41;;;;;;;;;9.25;9.25;;;;;;;;5097741;27;45438;-77
2022/10/09 01:52:07;;;;;;;;;10.75;10.75;;;;;;;;5102857;27;45241;-79
2022/10/09 01:54:47;;;;;;;;;8.00;8.00;;;;;;;;5098964;27;45464;-78
2022/10/09 01:57:17;;;;;;;;;12.25;12.25;;;;;;;;5099019;27;45462;-78
2022/10/09 01:59:43;;;;;;;;;6.75;6.75;;;;;;;;5101370;27;45370;-77
2022/10/09 02:02:09;;;;;;;;;2.00;2.00;;;;;;;;5099417;27;45415;-79
2022/10/09 02:04:37;;;;;;;;;9.00;9.00;;;;;;;;5097648;27;46457;-79
2022/10/09 02:07:03;;;;;;;;;3.75;3.75;;;;;;;;5097845;27;45254;-78
2022/10/09 02:09:29;;;;;;;;;5.25;5.25;;;;;;;;5097386;27;45300;-80
2022/10/09 02:11:56;;;;;;;;;4.50;4.50;;;;;;;;5098438;27;45449;-80
2022/10/09 02:14:21;;;;;;;;;5.00;5.00;;;;;;;;5098172;27;48765;-77
2022/10/09 02:16:52;;;;;;;;;4.00;4.00;;;;;;;;5113134;27;45283;-77
2022/10/09 02:19:23;;;;;;;;;8.75;8.25;;;;;;;;5099343;27;45242;-77
2022/10/09 02:21:54;;;;;;;;;4.00;4.00;;;;;;;;5096994;27;45384;-78
2022/10/09 02:24:20;;;;;;;;;3.00;3.00;;;;;;;;5097805;27;45351;-79
2022/10/09 02:26:46;;;;;;;;;2.75;2.00;;;;;;;;5098200;27;45191;-78
2022/10/09 02:29:13;;;;;;;;;4.00;4.00;;;;;;;;5098071;27;45332;-78
2022/10/09 02:31:40;;;;;;;;;4.50;4.50;;;;;;;;5097325;27;45519;-77
2022/10/09 02:34:09;;;;;;;;;2.75;2.75;;;;;;;;5098819;27;46465;-77
2022/10/09 02:36:35;;;;;;;;;3.50;3.50;;;;;;;;5099072;27;45264;-76
2022/10/09 02:39:01;;;;;;;;;3.00;3.00;;;;;;;;5102423;27;45168;-79
2022/10/09 02:41:26;;;;;;;;;3.00;3.00;;;;;;;;5103187;27;45533;-77
2022/10/09 02:43:51;;;;;;;;;3.50;3.50;;;;;;;;5098226;27;45315;-76
2022/10/09 02:46:16;;;;;;;;;4.00;4.00;;;;;;;;5099592;27;45320;-77
2022/10/09 02:48:42;;;;;;;;;3.25;3.25;;;;;;;;5097548;27;45239;-79
2022/10/09 02:51:07;;;;;;;;;6.25;6.25;;;;;;;;5096768;27;45283;-77
2022/10/09 02:53:33;;;;;;;;;4.00;4.00;;;;;;;;5097832;27;45326;-77
2022/10/09 02:55:58;;;;;;;;;3.75;3.75;;;;;;;;5097605;27;45329;-78
2022/10/09 02:58:23;;;;;;;;;4.00;4.00;;;;;;;;5098101;27;45319;-78
2022/10/09 03:00:49;;;;;;;;;4.25;4.25;;;;;;;;5098099;27;45561;-78
2022/10/09 03:03:15;;;;;;;;;0.00;0.00;;;;;;;;5096753;27;46969;-78
2022/10/09 03:05:40;;;;;;;;;5.00;5.00;;;;;;;;5099295;27;45360;-78
2022/10/09 03:08:06;;;;;;;;;4.00;4.00;;;;;;;;5104006;27;45383;-78
2022/10/09 03:10:31;;;;;;;;;4.00;4.00;;;;;;;;5101339;27;45400;-79
2022/10/09 03:12:56;;;;;;;;;4.25;4.25;;;;;;;;5107507;27;45244;-78
2022/10/09 03:15:22;;;;;;;;;5.50;5.50;;;;;;;;5100833;27;45262;-77
2022/10/09 03:17:47;;;;;;;;;4.00;4.00;;;;;;;;5099807;27;45178;-78
2022/10/09 03:20:12;;;;;;;;;4.00;4.00;;;;;;;;5092523;27;45502;-78
2022/10/09 03:22:37;;;;;;;;;3.25;3.25;;;;;;;;5077365;28;46375;-78
2022/10/09 03:25:03;;;;;;;;;4.50;4.50;;;;;;;;5058880;28;45357;-79
2022/10/09 03:27:29;;;;;;;;;5.00;5.00;;;;;;;;5078041;28;45688;-77
2022/10/09 03:29:55;;;;;;;;;3.50;3.50;;;;;;;;5079272;28;45319;-78
2022/10/09 03:32:20;;;;;;;;;4.00;4.00;;;;;;;;5077021;28;46368;-78
2022/10/09 03:34:45;;;;;;;;;4.00;4.00;;;;;;;;5077820;28;45508;-77
2022/10/09 03:37:10;;;;;;;;;2.50;2.50;;;;;;;;5059190;28;45247;-79
2022/10/09 03:39:36;;;;;;;;;3.00;3.00;;;;;;;;5076737;28;45612;-76
2022/10/09 03:42:01;;;;;;;;;3.50;3.50;;;;;;;;5076276;28;45357;-77
2022/10/09 03:44:26;;;;;;;;;3.75;3.75;;;;;;;;5080474;28;45259;-77
2022/10/09 03:46:51;;;;;;;;;4.00;4.00;;;;;;;;5080688;28;45246;-76
2022/10/09 03:49:16;;;;;;;;;5.00;5.00;;;;;;;;5078213;28;45350;-78
2022/10/09 03:51:42;;;;;;;;;3.25;3.25;;;;;;;;5076956;28;46263;-78
2022/10/09 03:54:07;;;;;;;;;5.25;5.25;;;;;;;;5077617;28;45390;-77
2022/10/09 03:56:32;;;;;;;;;4.00;4.00;;;;;;;;5076694;28;45420;-78
2022/10/09 03:58:57;;;;;;;;;4.00;4.00;;;;;;;;5077795;28;45467;-78
2022/10/09 04:01:22;;;;;;;;;5.50;4.50;;;;;;;;5076373;28;45504;-77
2022/10/09 04:03:48;;;;;;;;;3.75;3.75;;;;;;;;5077878;28;45342;-76
2022/10/09 04:06:13;;;;;;;;;3.00;3.00;;;;;;;;5076645;28;45263;-78
2022/10/09 04:08:38;;;;;;;;;5.00;5.00;;;;;;;;5076754;28;45660;-78
2022/10/09 04:11:03;;;;;;;;;4.25;4.25;;;;;;;;5060408;28;48103;-78
2022/10/09 04:13:29;;;;;;;;;5.00;5.00;;;;;;;;5058126;28;45331;-77
2022/10/09 04:15:54;;;;;;;;;6.00;4.75;;;;;;;;5076731;28;45311;-77
2022/10/09 04:18:20;;;;;;;;;5.00;5.00;;;;;;;;5078574;28;45269;-79
2022/10/09 04:20:49;;;;;;;;;5.25;5.25;;;;;;;;5078701;27;45506;-78
2022/10/09 04:23:15;;;;;;;;;4.75;4.75;;;;;;;;5076535;28;45205;-78
2022/10/09 04:25:40;;;;;;;;;4.25;4.25;;;;;;;;5075914;28;45493;-78
2022/10/09 04:28:05;;;;;;;;;5.25;5.25;;;;;;;;5076204;28;45215;-78
2022/10/09 04:30:30;;;;;;;;;3.00;3.00;;;;;;;;5057562;28;48145;-77
2022/10/09 04:32:57;;;;;;;;;3.25;3.25;;;;;;;;5078514;28;45309;-78
2022/10/09 04:35:22;;;;;;;;;5.75;5.75;;;;;;;;5080204;28;45399;-78
2022/10/09 04:37:47;;;;;;;;;6.50;6.50;;;;;;;;5079874;28;45401;-78
2022/10/09 04:40:12;;;;;;;;;28.25;28.25;;;;;;;;5079864;28;45472;-77
2022/10/09 04:42:38;;;;;;;;;11.25;11.25;;;;;;;;5081114;28;45399;-77
2022/10/09 04:45:03;;;;;;;;;10.00;10.00;;;;;;;;5081901;28;45347;-78
2022/10/09 04:47:29;;;;;;;;;6.75;6.75;;;;;;;;5079709;28;45323;-77
2022/10/09 04:49:55;;;;;;;;;10.00;10.00;;;;;;;;5079391;28;47001;-77
2022/10/09 04:52:20;;;;;;;;;10.00;10.00;;;;;;;;5082763;28;45262;-76
2022/10/09 04:54:45;;;;;;;;;11.25;11.25;;;;;;;;5089764;28;45433;-78
2022/10/09 04:57:10;;;;;;;;;10.50;10.50;;;;;;;;5084346;28;45303;-79
2022/10/09 04:59:35;;;;;;;;;13.00;13.00;;;;;;;;5080837;28;45325;-79
2022/10/09 05:02:01;;;;;;;;;13.25;13.25;;;;;;;;5080366;28;45498;-77
2022/10/09 05:04:26;;;;;;;;;11.00;11.00;;;;;;;;5080334;28;45470;-79
2022/10/09 05:06:51;;;;;;;;;9.75;9.75;;;;;;;;5084213;28;45442;-77
2022/10/09 05:09:16;;;;;;;;;12.00;12.00;;;;;;;;5080734;28;46189;-79
2022/10/09 05:11:42;;;;;;;;;13.25;13.25;;;;;;;;5082737;28;45194;-78
2022/10/09 05:14:07;;;;;;;;;11.00;11.00;;;;;;;;5092191;28;45192;-76
2022/10/09 05:16:32;;;;;;;;;13.00;13.00;;;;;;;;5081545;28;45233;-80
2022/10/09 05:18:58;;;;;;;;;13.25;13.25;;;;;;;;5081776;28;46103;-78
2022/10/09 05:21:24;;;;;;;;;14.25;13.50;;;;;;;;5090076;27;45841;-78
2022/10/09 05:23:51;;;;;;;;;15.50;14.75;;;;;;;;5100761;27;45415;-78
2022/10/09 05:26:18;;;;;;;;;12.75;12.75;;;;;;;;5102163;27;45188;-78
2022/10/09 05:28:43;;;;;;;;;14.00;14.00;;;;;;;;5101492;27;45492;-78
2022/10/09 05:31:09;;;;;;;;;12.00;12.00;;;;;;;;5103471;27;45454;-78
2022/10/09 05:33:34;;;;;;;;;14.00;14.00;;;;;;;;5099724;27;45547;-78
2022/10/09 05:36:00;;;;;;;;;13.50;13.50;;;;;;;;5099176;27;45285;-77
2022/10/09 05:38:27;;;;;;;;;14.00;13.25;;;;;;;;5098564;27;45555;-78
2022/10/09 05:40:56;;;;;;;;;11.00;11.00;;;;;;;;5098882;27;45422;-79
2022/10/09 05:43:25;;;;;;;;;13.00;13.00;;;;;;;;5098601;27;45514;-77
2022/10/09 05:45:51;;;;;;;;;12.00;12.00;;;;;;;;5099073;27;45364;-78
2022/10/09 05:48:16;;;;;;;;;11.50;11.25;;;;;;;;5097463;27;45927;-78
2022/10/09 05:50:41;;;;;;;;;10.50;10.50;;;;;;;;5099563;27;45425;-78
2022/10/09 05:53:07;;;;;;;;;13.00;13.00;;;;;;;;5100179;27;45207;-78
2022/10/09 05:55:32;;;;;;;;;9.25;9.25;;;;;;;;5101690;27;45355;-76
2022/10/09 05:57:57;;;;;;;;;12.25;11.75;;;;;;;;5098496;27;46234;-78
2022/10/09 06:00:22;;;;;;;;;10.00;10.00;;;;;;;;5098573;27;45252;-78
2022/10/09 06:02:47;;;;;;;;;12.00;12.00;;;;;;;;5103824;27;45289;-77
2022/10/09 06:05:13;;;;;;;;;11.50;11.50;;;;;;;;5100615;27;45229;-78
2022/10/09 06:07:38;;;;;;;;;12.50;12.50;;;;;;;;5100999;27;46023;-76
2022/10/09 06:10:04;;;;;;;;;13.00;13.00;;;;;;;;5099709;27;45724;-79
2022/10/09 06:12:29;;;;;;;;;14.25;14.25;;;;;;;;5100102;27;45277;-77
2022/10/09 06:14:54;;;;;;;;;11.50;11.50;;;;;;;;5099338;27;45223;-76
2022/10/09 06:17:19;;;;;;;;;13.50;13.50;;;;;;;;5098558;27;45352;-77
2022/10/09 06:19:44;;;;;;;;;9.50;9.50;;;;;;;;5100858;27;45456;-77
2022/10/09 06:22:10;;;;;;;;;12.00;12.00;;;;;;;;5100991;27;45244;-78
2022/10/09 06:24:35;;;;;;;;;10.50;10.50;;;;;;;;5097538;27;45222;-77
2022/10/09 06:27:01;;;;;;;;;8.50;8.50;;;;;;;;5099753;27;46240;-79
2022/10/09 06:29:26;;;;;;;;;12.75;12.75;;;;;;;;5099168;27;45168;-78
2022/10/09 06:31:51;;;;;;;;;9.75;9.75;;;;;;;;5099096;27;45230;-78
2022/10/09 06:34:17;;;;;;;;;14.00;14.00;;;;;;;;5098389;27;45288;-79
2022/10/09 06:36:42;;;;;;;;;9.75;9.75;;;;;;;;5107583;27;45519;-77
2022/10/09 06:39:08;;;;;;;;;15.00;15.00;;;;;;;;5106486;27;45341;-76
2022/10/09 06:41:34;;;;;;;;;12.00;12.00;;;;;;;;5115242;27;44744;-77
2022/10/09 06:44:00;;;;;;;;;10.75;10.75;;;;;;;;5102768;27;45298;-77
2022/10/09 06:46:27;;;;;;;;;11.00;11.00;;;;;;;;5099473;27;45343;-77
2022/10/09 06:48:52;;;;;;;;;9.00;9.00;;;;;;;;5099531;27;45284;-78
2022/10/09 06:51:18;;;;;;;;;22.00;22.00;;;;;;;;5100069;27;45328;-78
2022/10/09 06:53:51;;;;;;;;;12.00;12.00;;;;;;;;5098661;27;45333;-78
2022/10/09 06:56:17;;;;;;;;;10.25;10.25;;;;;;;;5096241;27;47112;-77
2022/10/09 06:58:42;;;;;;;;;12.00;12.00;;;;;;;;5097929;27;45831;-76
2022/10/09 07:01:09;;;;;;;;;10.00;10.00;;;;;;;;5097754;27;45337;-78
2022/10/09 07:03:35;;;;;;;;;17.25;16.50;;;;;;;;5097344;27;45500;-78
2022/10/09 07:06:09;;;;;;;;;12.00;12.00;;;;;;;;5097599;27;46458;-75
2022/10/09 07:08:35;;;;;;;;;8.00;8.00;;;;;;;;5098202;27;45289;-78
2022/10/09 07:11:06;;;;;;;;;8.50;8.50;;;;;;;;5099141;27;45411;-78
2022/10/09 07:13:31;;;;;;;;;8.75;8.75;;;;;;;;5099055;27;45841;-78
2022/10/09 07:15:56;;;;;;;;;9.25;9.25;;;;;;;;5100492;27;46395;-79
2022/10/09 07:18:22;;;;;;;;;8.50;8.50;;;;;;;;5099976;27;45773;-78
2022/10/09 07:20:47;;;;;;;;;14.50;14.50;;;;;;;;5098611;27;45806;-76
2022/10/09 07:23:15;;;;;;;;;9.50;9.50;;;;;;;;5099534;27;45868;-75
2022/10/09 07:25:40;;;;;;;;;7.00;7.00;;;;;;;;5099094;27;45956;-79
2022/10/09 07:28:06;;;;;;;;;8.75;8.00;;;;;;;;5097299;27;45234;-77
2022/10/09 07:30:36;;;;;;;;;9.00;9.00;;;;;;;;5097430;27;45327;-77
2022/10/09 07:33:01;;;;;;;;;9.00;9.00;;;;;;;;5100054;27;45261;-78
2022/10/09 07:35:27;;;;;;;;;10.75;10.75;;;;;;;;5097293;27;45383;-77
2022/10/09 07:37:52;;;;;;;;;7.75;7.75;;;;;;;;5097851;27;45294;-76
2022/10/09 07:40:17;;;;;;;;;10.50;10.50;;;;;;;;5097178;27;45222;-78
2022/10/09 07:42:42;;;;;;;;;9.75;9.75;;;;;;;;5096771;27;45277;-78
2022/10/09 07:45:08;;;;;;;;;7.50;7.50;;;;;;;;5096909;27;45408;-76
2022/10/09 07:47:33;;;;;;;;;7.25;7.25;;;;;;;;5097032;27;45392;-77
2022/10/09 07:49:58;;;;;;;;;12.00;12.00;;;;;;;;5097997;27;45278;-78
2022/10/09 07:52:23;;;;;;;;;10.50;10.50;;;;;;;;5097122;27;45229;-77
2022/10/09 07:54:48;;;;;;;;;9.50;9.50;;;;;;;;5096121;27;48059;-77
2022/10/09 07:57:13;;;;;;;;;7.25;7.25;;;;;;;;5099695;27;45260;-77
2022/10/09 07:59:39;;;;;;;;;13.75;13.75;;;;;;;;5098883;27;45706;-78
2022/10/09 08:02:04;;;;;;;;;12.75;12.75;;;;;;;;5097751;27;45469;-75
2022/10/09 08:04:30;;;;;;;;;9.00;9.00;;;;;;;;5097517;27;46486;-77
2022/10/09 08:06:57;;;;;;;;;11.00;10.25;;;;;;;;5098395;27;45430;-77
2022/10/09 08:09:22;;;;;;;;;13.25;13.25;;;;;;;;5100545;27;45351;-76
2022/10/09 08:11:47;;;;;;;;;13.75;13.75;;;;;;;;5101745;27;45596;-76
2022/10/09 08:14:14;;;;;;;;;8.00;8.00;;;;;;;;5103544;27;46004;-76
2022/10/09 08:16:39;;;;;;;;;8.25;8.25;;;;;;;;5102555;27;45348;-77
2022/10/09 08:19:04;;;;;;;;;9.00;9.00;;;;;;;;5101513;27;45356;-77
2022/10/09 08:21:31;;;;;;;;;9.00;9.00;;;;;;;;5113331;27;45293;-76
2022/10/09 08:23:57;;;;;;;;;16.25;16.25;;;;;;;;5119662;27;45263;-77
2022/10/09 08:26:23;;;;;;;;;9.00;9.00;;;;;;;;5107957;27;45297;-77
2022/10/09 08:28:50;;;;;;;;;9.25;9.25;;;;;;;;5102628;27;45244;-77
2022/10/09 08:31:15;;;;;;;;;11.25;11.25;;;;;;;;5100153;27;45528;-76
2022/10/09 08:33:41;;;;;;;;;9.50;9.50;;;;;;;;5100655;27;46052;-79
2022/10/09 08:36:08;;;;;;;;;8.25;8.25;;;;;;;;5100775;27;45271;-78
2022/10/09 08:38:33;;;;;;;;;8.25;8.25;;;;;;;;5101816;27;45365;-77
2022/10/09 08:41:05;;;;;;;;;9.50;9.50;;;;;;;;5103985;27;45343;-76
2022/10/09 08:43:32;;;;;;;;;11.00;11.00;;;;;;;;5099413;27;45276;-76
2022/10/09 08:46:04;;;;;;;;;13.50;13.50;;;;;;;;5099024;27;45384;-77
2022/10/09 08:48:34;;;;;;;;;10.50;10.50;;;;;;;;5100031;27;45230;-77
2022/10/09 08:51:00;;;;;;;;;8.50;8.50;;;;;;;;5100100;27;45325;-75
2022/10/09 08:53:37;;;;;;;;;11.25;11.25;;;;;;;;5098310;27;48121;-78
2022/10/09 08:56:04;;;;;;;;;10.50;10.50;;;;;;;;5099368;27;45286;-77
2022/10/09 08:58:31;;;;;;;;;10.00;10.00;;;;;;;;5100815;27;45277;-77
2022/10/09 09:01:04;;;;;;;;;12.75;12.75;;;;;;;;5099810;27;45507;-77
2022/10/09 09:03:43;;;;;;;;;14.75;14.75;;;;;;;;5099144;27;46179;-78
2022/10/09 09:06:08;;;;;;;;;8.25;8.25;;;;;;;;5099172;27;45432;-77
2022/10/09 09:08:52;;;;;;;;;6.75;6.75;;;;;;;;5099386;27;45319;-77
2022/10/09 09:11:20;;;;;;;;;11.25;11.25;;;;;;;;5104463;27;45582;-78
2022/10/09 09:13:51;;;;;;;;;11.25;11.25;;;;;;;;5099056;27;46199;-78
2022/10/09 09:16:35;;;;;;;;;11.00;11.00;;;;;;;;5099242;27;45284;-78
2022/10/09 09:19:28;;;;;;;;;10.00;10.00;;;;;;;;5098603;27;45265;-78
2022/10/09 09:21:53;;;;;;;;;13.50;13.50;;;;;;;;5100036;27;45385;-78
2022/10/09 09:24:20;;;;;;;;;11.50;11.50;;;;;;;;5099580;27;46271;-79
2022/10/09 09:26:50;;;;;;;;;11.75;11.75;;;;;;;;5100723;27;45315;-78
2022/10/09 09:29:19;;;;;;;;;13.25;13.25;;;;;;;;5104094;27;45252;-78
2022/10/09 09:31:45;;;;;;;;;10.25;10.00;;;;;;;;5107551;27;45564;-78
2022/10/09 09:34:10;;;;;;;;;16.00;14.25;;;;;;;;5109970;27;46306;-77
2022/10/09 09:36:43;;;;;;;;;15.50;13.75;;;;;;;;5103552;27;44779;-78
2022/10/09 09:39:10;;;;;;;;;9.00;9.00;;;;;;;;5104464;27;45347;-76
2022/10/09 09:41:35;;;;;;;;;13.25;13.00;;;;;;;;5098479;27;45304;-77
2022/10/09 09:44:00;;;;;;;;;14.00;14.00;;;;;;;;5099601;27;45985;-77
2022/10/09 09:46:27;;;;;;;;;16.25;14.50;;;;;;;;5100116;27;45471;-77
2022/10/09 09:48:53;;;;;;;;;13.00;13.00;;;;;;;;5098524;27;45321;-78
2022/10/09 09:51:20;;;;;;;;;15.25;15.25;;;;;;;;5103274;27;45297;-77
2022/10/09 09:53:47;;;;;;;;;17.00;17.00;;;;;;;;5099427;27;45620;-78
2022/10/09 09:56:13;;;;;;;;;14.00;13.75;;;;;;;;5099840;27;45376;-76
2022/10/09 09:58:43;;;;;;;;;10.50;10.50;;;;;;;;5098929;27;45432;-78
2022/10/09 10:01:18;;;;;;;;;11.00;11.00;;;;;;;;5100275;27;45315;-77
2022/10/09 10:03:46;;;;;;;;;9.75;9.75;;;;;;;;5098282;27;46860;-78
2022/10/09 10:06:42;;;;;;;;;8.00;8.00;;;;;;;;5104564;27;45954;-79
2022/10/09 10:09:14;;;;;;;;;6.75;6.75;;;;;;;;5094791;27;45916;-78
2022/10/09 10:11:47;;;;;;;;;9.00;9.00;;;;;;;;5098857;27;45299;-78
2022/10/09 10:14:13;;;;;;;;;18.00;18.00;;;;;;;;5095926;27;47714;-80
2022/10/09 10:16:39;;;;;;;;;8.75;8.75;;;;;;;;5098007;27;45362;-77
2022/10/09 10:19:05;;;;;;;;;10.00;10.00;;;;;;;;5097689;27;45336;-76
2022/10/09 10:21:38;;;;;;;;;16.00;16.00;;;;;;;;5097896;27;45477;-78
2022/10/09 10:24:08;;;;;;;;;7.50;7.25;;;;;;;;5097602;27;45353;-78
2022/10/09 10:26:36;;;;;;;;;8.00;8.00;;;;;;;;5097455;27;45330;-78
2022/10/09 10:29:13;;;;;;;;;17.50;17.50;;;;;;;;5097519;27;45348;-77
2022/10/09 10:31:53;;;;;;;;;6.25;6.25;;;;;;;;5098479;27;45256;-78
2022/10/09 10:34:24;;;;;;;;;9.50;9.50;;;;;;;;5097669;27;46668;-79
2022/10/09 10:36:52;;;;;;;;;9.00;9.00;;;;;;;;5097529;27;45396;-79
2022/10/09 10:39:26;;;;;;;;;8.00;8.00;;;;;;;;5098704;27;45278;-78
2022/10/09 10:41:51;;;;;;;;;8.00;8.00;;;;;;;;5099728;27;45309;-79
2022/10/09 10:44:21;;;;;;;;;6.50;6.50;;;;;;;;5098372;27;45331;-79
2022/10/09 10:46:51;;;;;;;;;6.25;6.25;;;;;;;;5097966;27;45432;-78
2022/10/09 10:49:19;;;;;;;;;6.75;6.75;;;;;;;;5097281;27;45392;-77
2022/10/09 10:52:02;;;;;;;;;8.00;8.00;;;;;;;;5098624;27;45519;-77
2022/10/09 10:54:46;;;;;;;;;11.00;11.00;;;;;;;;5100510;27;45260;-78
2022/10/09 10:57:37;;;;;;;;;8.00;8.00;;;;;;;;5099092;27;45477;-76
2022/10/09 11:00:09;;;;;;;;;6.25;6.25;;;;;;;;5100284;27;45476;-78
2022/10/09 11:02:47;;;;;;;;;6.75;6.75;;;;;;;;5099332;27;45913;-80
2022/10/09 11:05:32;;;;;;;;;8.00;8.00;;;;;;;;5099697;27;45451;-79
2022/10/09 11:08:15;;;;;;;;;5.00;5.00;;;;;;;;5101498;27;45427;-79
2022/10/09 11:10:49;;;;;;;;;6.00;6.00;;;;;;;;5101286;27;45373;-79
2022/10/09 11:13:17;;;;;;;;;6.50;6.00;;;;;;;;5101112;27;45331;-78
2022/10/09 11:15:42;;;;;;;;;6.50;6.50;;;;;;;;5100729;27;46694;-78
2022/10/09 11:18:16;;;;;;;;;7.25;7.25;;;;;;;;5101753;27;45259;-77
2022/10/09 11:20:48;;;;;;;;;7.25;7.25;;;;;;;;5109763;27;44708;-78
2022/10/09 11:23:28;;;;;;;;;7.25;7.25;;;;;;;;5105282;27;45519;-77
2022/10/09 11:26:00;;;;;;;;;5.25;5.25;;;;;;;;5101331;27;45886;-77
2022/10/09 11:28:40;;;;;;;;;8.00;8.00;;;;;;;;5101349;27;45247;-78
2022/10/09 11:31:15;;;;;;;;;4.75;4.75;;;;;;;;5100954;27;45407;-78
2022/10/09 11:33:45;;;;;;;;;5.25;5.25;;;;;;;;5101242;27;45332;-78
2022/10/09 11:36:17;;;;;;;;;6.00;6.00;;;;;;;;5100365;27;45226;-77
2022/10/09 11:38:45;;;;;;;;;3.50;3.50;;;;;;;;5098300;27;45859;-76
2022/10/09 11:41:10;;;;;;;;;6.50;6.50;;;;;;;;5099308;27;45183;-78
2022/10/09 11:43:57;;;;;;;;;1.00;1.00;;;;;;;;5097908;27;45242;-78
2022/10/09 11:46:40;;;;;;;;;7.25;7.25;;;;;;;;5100494;27;45611;-77
2022/10/09 11:49:15;;;;;;;;;6.00;6.00;;;;;;;;5102096;27;44869;-77
2022/10/09 11:51:40;;;;;;;;;22.25;20.75;;;;;;;;5100682;27;45301;-78
2022/10/09 11:54:11;;;;;;;;;6.00;6.00;;;;;;;;5100734;27;45385;-77
2022/10/09 11:56:36;;;;;;;;;3.75;3.75;;;;;;;;5099780;27;45411;-78
2022/10/09 11:59:03;;;;;;;;;3.75;3.75;;;;;;;;5097621;27;45459;-77
2022/10/09 12:01:33;;;;;;;;;5.75;5.75;;;;;;;;5097407;27;45339;-77
2022/10/09 12:04:05;;;;;;;;;3.00;3.00;;;;;;;;5096769;27;45411;-79
2022/10/09 12:06:31;;;;;;;;;4.00;4.00;;;;;;;;5095011;27;46001;-77
2022/10/09 12:08:59;;;;;;;;;5.00;5.00;;;;;;;;5097775;27;45249;-77
2022/10/09 12:11:25;;;;;;;;;2.25;2.25;;;;;;;;5098690;27;45343;-76
2022/10/09 12:13:55;;;;;;;;;3.00;3.00;;;;;;;;5099713;27;45506;-76
2022/10/09 12:16:35;;;;;;;;;4.25;4.25;;;;;;;;5099070;27;46161;-77
2022/10/09 12:19:03;;;;;;;;;3.50;3.50;;;;;;;;5099737;27;45341;-77
2022/10/09 12:21:47;;;;;;;;;7.00;7.00;;;;;;;;5083118;27;45256;-77
2022/10/09 12:24:15;;;;;;;;;4.00;4.00;;;;;;;;5083484;28;45322;-78
2022/10/09 12:26:40;;;;;;;;;3.00;3.00;;;;;;;;5078075;28;45432;-78
2022/10/09 12:29:12;;;;;;;;;6.00;5.75;;;;;;;;5059234;28;46163;-78
2022/10/09 12:31:38;;;;;;;;;5.50;5.50;;;;;;;;5059375;28;45259;-79
2022/10/09 12:34:12;;;;;;;;;4.00;4.00;;;;;;;;5083598;28;45513;-79
2022/10/09 12:36:38;;;;;;;;;3.50;3.50;;;;;;;;5084107;28;45348;-78
2022/10/09 12:39:13;;;;;;;;;4.75;4.75;;;;;;;;5077895;28;45230;-79
2022/10/09 12:41:40;;;;;;;;;4.00;4.00;;;;;;;;5076607;28;45291;-77
2022/10/09 12:44:20;;;;;;;;;5.00;5.00;;;;;;;;5077394;28;45405;-79
2022/10/09 12:46:57;;;;;;;;;5.00;5.00;;;;;;;;5077567;28;46103;-78
2022/10/09 12:49:31;;;;;;;;;6.00;6.00;;;;;;;;5078992;27;45369;-78
2022/10/09 12:51:58;;;;;;;;;3.00;3.00;;;;;;;;5057372;28;45429;-80
2022/10/09 12:54:24;;;;;;;;;6.25;6.25;;;;;;;;5079801;28;45226;-77
2022/10/09 12:56:51;;;;;;;;;4.50;4.50;;;;;;;;5079723;28;45355;-78
2022/10/09 12:59:16;;;;;;;;;4.25;4.25;;;;;;;;5079879;28;45297;-78
2022/10/09 13:01:42;;;;;;;;;7.75;7.75;;;;;;;;5079274;28;45474;-78
2022/10/09 13:04:22;;;;;;;;;4.00;4.00;;;;;;;;5079040;28;45561;-76
2022/10/09 13:06:48;;;;;;;;;6.00;6.00;;;;;;;;5079711;28;45353;-77
2022/10/09 13:09:21;;;;;;;;;6.25;6.25;;;;;;;;5079358;28;45339;-78
2022/10/09 13:11:55;;;;;;;;;4.00;3.00;;;;;;;;5078793;28;45326;-78
2022/10/09 13:14:31;;;;;;;;;4.00;4.00;;;;;;;;5078934;28;45425;-78
2022/10/09 13:16:57;;;;;;;;;5.00;5.00;;;;;;;;5078595;28;46159;-80
2022/10/09 13:19:24;;;;;;;;;7.50;7.50;;;;;;;;5060908;28;45283;-78
2022/10/09 13:22:05;;;;;;;;;8.75;8.75;;;;;;;;5095374;27;45344;-76
2022/10/09 13:24:30;;;;;;;;;6.25;6.25;;;;;;;;5098582;27;45547;-78
2022/10/09 13:26:55;;;;;;;;;2.25;2.25;;;;;;;;5099650;27;46334;-78
2022/10/09 13:29:22;;;;;;;;;5.50;5.50;;;;;;;;5102758;27;45268;-78
2022/10/09 13:31:47;;;;;;;;;6.00;6.00;;;;;;;;5107329;27;45376;-78
2022/10/09 13:34:13;;;;;;;;;5.00;5.00;;;;;;;;5102933;27;45228;-78
2022/10/09 13:36:39;;;;;;;;;9.00;9.00;;;;;;;;5099971;27;45746;-79
2022/10/09 13:39:04;;;;;;;;;7.50;7.50;;;;;;;;5099288;27;45322;-78
2022/10/09 13:41:30;;;;;;;;;7.25;7.25;;;;;;;;5097367;27;45267;-77
2022/10/09 13:43:56;;;;;;;;;4.50;4.50;;;;;;;;5098613;27;45354;-77
2022/10/09 13:46:21;;;;;;;;;5.00;5.00;;;;;;;;5100471;27;46305;-77
2022/10/09 13:48:46;;;;;;;;;4.75;4.75;;;;;;;;5096706;27;45253;-77
2022/10/09 13:51:12;;;;;;;;;11.50;11.50;;;;;;;;5098361;27;45231;-78
2022/10/09 13:53:37;;;;;;;;;3.00;3.00;;;;;;;;5098226;27;45333;-79
2022/10/09 13:56:03;;;;;;;;;2.50;2.50;;;;;;;;5097867;27;45350;-76
2022/10/09 13:58:28;;;;;;;;;5.00;5.00;;;;;;;;5098241;27;45425;-77
2022/10/09 14:00:54;;;;;;;;;5.25;5.25;;;;;;;;5101637;27;45370;-78
2022/10/09 14:03:19;;;;;;;;;5.25;5.25;;;;;;;;5109050;27;45258;-78
2022/10/09 14:05:44;;;;;;;;;5.50;5.50;;;;;;;;5098402;27;46464;-77
2022/10/09 14:08:10;;;;;;;;;5.00;5.00;;;;;;;;5099564;27;45326;-77
2022/10/09 14:10:40;;;;;;;;;4.75;4.75;;;;;;;;5099212;27;45338;-78
2022/10/09 14:13:05;;;;;;;;;4.00;4.00;;;;;;;;5097701;27;45251;-78
2022/10/09 14:15:31;;;;;;;;;6.00;6.00;;;;;;;;5098775;27;45319;-79
2022/10/09 14:17:56;;;;;;;;;9.00;9.00;;;;;;;;5099776;27;45354;-79
2022/10/09 14:20:23;;;;;;;;;3.25;3.25;;;;;;;;5100917;27;45340;-78
2022/10/09 14:22:49;;;;;;;;;5.25;5.25;;;;;;;;5099690;27;45519;-77
2022/10/09 14:25:14;;;;;;;;;13.25;13.25;;;;;;;;5102659;27;46209;-76
2022/10/09 14:27:40;;;;;;;;;7.25;7.25;;;;;;;;5085534;27;45468;-75
2022/10/09 14:30:05;;;;;;;;;5.00;5.00;;;;;;;;5088537;27;46197;-78
2022/10/09 14:32:30;;;;;;;;;7.00;7.00;;;;;;;;5097048;27;45660;-77
2022/10/09 14:34:56;;;;;;;;;9.00;9.00;;;;;;;;5097959;27;46188;-76
2022/10/09 14:37:21;;;;;;;;;3.50;3.50;;;;;;;;5106392;27;45409;-78